Stonington, CT

5:48 AM EST on January 27, 2015 (GMT -0500)
Westerly State | Change Station
CLOSE
Current Station
Airport
Location: Westerly,
Elevation: 79 ft
Nearby Weather Stations
Active Advisory: Blizzard Warning Active Notice: Public Information Statement

Elev 79 ft 41.35 °N, 71.81 °W | Updated 47 minutes ago

Snow
Snow
19 °F
Feels Like 2 °F
N
22
Wind Variable Wind from North
Gusts 39 mph

Today
High -- | Low -- °F
--% Chance of Precip.
Yesterday
High -- | Low -- °F
Precip. -- in
7:03 AM 4:57 PM
First Quarter, 53% visible
Pressure 29.51 in
Visibility 0.2 miles
Clouds
Windchill 2 °F
Dew Point 16 °F
Humidity 88%
Rainfall 0.04 in
Snow Depth Not available.
UV Not available.
Pollen .10 out of 12
Air Quality Not available.
Flu Activity Not available.
SPECI KWST 271001Z AUTO 35019G34KT 1/4SM FZFG VV004 M07/M09 A2951 RMK AO2 PK WND 35034/0956 T10721089 PWINO FZRANO $

More Conditions Fewer Conditions

Pressure 29.51 in
Visibility 0.2 miles
Clouds
Windchill 2 °F
Dew Point 16 °F
Humidity 88%
Rainfall 0.04 in
Snow Depth Not available.
UV Not available.
Pollen .10 out of 12
Air Quality Not available.
Flu Activity Not available.
SPECI KWST 271001Z AUTO 35019G34KT 1/4SM FZFG VV004 M07/M09 A2951 RMK AO2 PK WND 35034/0956 T10721089 PWINO FZRANO $

More Conditions Fewer Conditions

10-Day Weather Forecast

Almanac

Astronomy

Jan. 27, 2015 Rise Set
Actual Time
Civil Twilight
Nautical Twilight
Astronomical Twilight
Moon
Length of Visible Light
Length of Day
Tomorrow will be .
, % of the Moon is Illuminated

Today's Extremes

State Highs State Lows

Community

WunderPhotos

Upload Photos

1,790,562 photos uploaded!

WunderBlogs® & News

Nearby

Air Quality

  Air Quality AQ Index Pollutant
Not available.

Snow Depth

Station Depth Elevation

Earthquake Activity

City Distance Mag. Time & Date
Minimum magnitude displayed is 2.5.

Coastal Water Temperatures

Place Temperature

Nearby Weather Stations